< < Back
Terminal Aerodrome Forecast


Current Version              Previous Versions:   1  2  3  4  5  6  7  8  9  

Terminal Aerodrome Forecast

455
FTUS42 KGSP 010520
TAFAVL
TAF
KAVL 010520Z 0106/0206 33004KT P6SM SCT060
      TEMPO 0106/0109 BKN060 OVC100
     FM010900 33004KT 4SM BR SCT008 BKN045
     FM011300 33005KT P6SM SCT045
     FM011700 33006G15KT P6SM BKN045 PROB30 0117/0121 4SM TSRA
      BKN040CB
     FM012300 33006KT P6SM BKN045=

Latest METAR

758
SAUS70 KWBC 012300 RRX
MTRAVL
METAR KAVL 012254Z 35007KT 7SM FEW090 OVC110 23/18 A3005 RMK AO2
RAB2158E12B32E41 SLP155 P0000 T02280178


USA.gov is the U.S. government's official web portal to all federal, state and local government web resources and services.